sensor_id;sensor_type;location;lat;lon;timestamp;temperature;humidity
31443;SHT31;18065;55.876;9.830;2024-03-07T00:00:17;20.53;51.39
31443;SHT31;18065;55.876;9.830;2024-03-07T00:02:48;20.54;51.22
31443;SHT31;18065;55.876;9.830;2024-03-07T00:05:19;20.53;51.22
31443;SHT31;18065;55.876;9.830;2024-03-07T00:07:50;20.51;51.22
31443;SHT31;18065;55.876;9.830;2024-03-07T00:10:22;20.51;51.15
31443;SHT31;18065;55.876;9.830;2024-03-07T00:12:50;20.51;51.22
31443;SHT31;18065;55.876;9.830;2024-03-07T00:15:19;20.51;51.16
31443;SHT31;18065;55.876;9.830;2024-03-07T00:17:48;20.50;51.22
31443;SHT31;18065;55.876;9.830;2024-03-07T00:20:18;20.53;51.03
31443;SHT31;18065;55.876;9.830;2024-03-07T00:22:48;20.51;51.14
31443;SHT31;18065;55.876;9.830;2024-03-07T00:25:17;20.53;51.14
31443;SHT31;18065;55.876;9.830;2024-03-07T00:27:50;20.56;51.17
31443;SHT31;18065;55.876;9.830;2024-03-07T00:30:19;20.56;51.29
31443;SHT31;18065;55.876;9.830;2024-03-07T00:32:48;20.57;51.28
31443;SHT31;18065;55.876;9.830;2024-03-07T00:35:17;20.57;51.19
31443;SHT31;18065;55.876;9.830;2024-03-07T00:37:46;20.56;51.29
31443;SHT31;18065;55.876;9.830;2024-03-07T00:40:15;20.57;51.38
31443;SHT31;18065;55.876;9.830;2024-03-07T00:42:43;20.57;51.33
31443;SHT31;18065;55.876;9.830;2024-03-07T00:45:15;20.60;51.33
31443;SHT31;18065;55.876;9.830;2024-03-07T00:47:44;20.57;51.30
31443;SHT31;18065;55.876;9.830;2024-03-07T00:50:14;20.57;51.39
31443;SHT31;18065;55.876;9.830;2024-03-07T00:52:43;20.57;51.35
31443;SHT31;18065;55.876;9.830;2024-03-07T00:55:11;20.54;51.31
31443;SHT31;18065;55.876;9.830;2024-03-07T00:57:40;20.56;51.33
31443;SHT31;18065;55.876;9.830;2024-03-07T01:00:10;20.56;51.35
31443;SHT31;18065;55.876;9.830;2024-03-07T01:02:43;20.54;51.37
31443;SHT31;18065;55.876;9.830;2024-03-07T01:05:12;20.50;51.35
31443;SHT31;18065;55.876;9.830;2024-03-07T01:07:43;20.51;51.36
31443;SHT31;18065;55.876;9.830;2024-03-07T01:10:13;20.51;51.37
31443;SHT31;18065;55.876;9.830;2024-03-07T01:12:42;20.50;51.33
31443;SHT31;18065;55.876;9.830;2024-03-07T01:15:11;20.50;51.36
31443;SHT31;18065;55.876;9.830;2024-03-07T01:17:43;20.50;51.30
31443;SHT31;18065;55.876;9.830;2024-03-07T01:20:12;20.51;51.34
31443;SHT31;18065;55.876;9.830;2024-03-07T01:22:41;20.49;51.33
31443;SHT31;18065;55.876;9.830;2024-03-07T01:25:09;20.49;51.36
31443;SHT31;18065;55.876;9.830;2024-03-07T01:27:38;20.47;51.38
31443;SHT31;18065;55.876;9.830;2024-03-07T01:30:08;20.50;51.40
31443;SHT31;18065;55.876;9.830;2024-03-07T01:32:37;20.49;51.42
31443;SHT31;18065;55.876;9.830;2024-03-07T01:35:09;20.47;51.43
31443;SHT31;18065;55.876;9.830;2024-03-07T01:37:39;20.47;51.42
31443;SHT31;18065;55.876;9.830;2024-03-07T01:40:09;20.44;51.47
31443;SHT31;18065;55.876;9.830;2024-03-07T01:42:39;20.43;51.47
31443;SHT31;18065;55.876;9.830;2024-03-07T01:45:09;20.46;51.52
31443;SHT31;18065;55.876;9.830;2024-03-07T01:47:38;20.46;51.46
31443;SHT31;18065;55.876;9.830;2024-03-07T01:50:10;20.41;51.46
31443;SHT31;18065;55.876;9.830;2024-03-07T01:52:40;20.44;51.52
31443;SHT31;18065;55.876;9.830;2024-03-07T01:55:11;20.41;51.53
31443;SHT31;18065;55.876;9.830;2024-03-07T01:57:42;20.41;51.53
31443;SHT31;18065;55.876;9.830;2024-03-07T02:00:12;20.41;51.49
31443;SHT31;18065;55.876;9.830;2024-03-07T02:02:41;20.41;51.47
31443;SHT31;18065;55.876;9.830;2024-03-07T02:05:12;20.39;51.48
31443;SHT31;18065;55.876;9.830;2024-03-07T02:07:43;20.39;51.49
31443;SHT31;18065;55.876;9.830;2024-03-07T02:10:12;20.39;51.54
31443;SHT31;18065;55.876;9.830;2024-03-07T02:12:42;20.39;51.53
31443;SHT31;18065;55.876;9.830;2024-03-07T02:15:11;20.36;51.51
31443;SHT31;18065;55.876;9.830;2024-03-07T02:17:40;20.36;51.53
31443;SHT31;18065;55.876;9.830;2024-03-07T02:20:12;20.37;51.45
31443;SHT31;18065;55.876;9.830;2024-03-07T02:22:44;20.36;51.46
31443;SHT31;18065;55.876;9.830;2024-03-07T02:25:13;20.37;51.44
31443;SHT31;18065;55.876;9.830;2024-03-07T02:27:42;20.34;51.45
31443;SHT31;18065;55.876;9.830;2024-03-07T02:30:12;20.33;51.47
31443;SHT31;18065;55.876;9.830;2024-03-07T02:32:42;20.33;51.52
31443;SHT31;18065;55.876;9.830;2024-03-07T02:35:17;20.32;51.48
31443;SHT31;18065;55.876;9.830;2024-03-07T02:37:49;20.33;51.48
31443;SHT31;18065;55.876;9.830;2024-03-07T02:40:18;20.30;51.49
31443;SHT31;18065;55.876;9.830;2024-03-07T02:42:47;20.30;51.52
31443;SHT31;18065;55.876;9.830;2024-03-07T02:45:16;20.30;51.50
31443;SHT31;18065;55.876;9.830;2024-03-07T02:47:44;20.30;51.49
31443;SHT31;18065;55.876;9.830;2024-03-07T02:50:13;20.29;51.51
31443;SHT31;18065;55.876;9.830;2024-03-07T02:52:42;20.30;51.41
31443;SHT31;18065;55.876;9.830;2024-03-07T02:55:17;20.29;51.40
31443;SHT31;18065;55.876;9.830;2024-03-07T02:57:46;20.28;51.44
31443;SHT31;18065;55.876;9.830;2024-03-07T03:00:15;20.29;51.44
31443;SHT31;18065;55.876;9.830;2024-03-07T03:02:52;20.25;51.40
31443;SHT31;18065;55.876;9.830;2024-03-07T03:05:21;20.26;51.42
31443;SHT31;18065;55.876;9.830;2024-03-07T03:07:48;20.39;51.52
31443;SHT31;18065;55.876;9.830;2024-03-07T03:10:26;22.38;46.88
31443;SHT31;18065;55.876;9.830;2024-03-07T03:12:55;25.38;40.48
31443;SHT31;18065;55.876;9.830;2024-03-07T03:15:25;27.07;37.19
31443;SHT31;18065;55.876;9.830;2024-03-07T03:17:54;27.90;35.60
31443;SHT31;18065;55.876;9.830;2024-03-07T03:20:25;27.68;35.86
31443;SHT31;18065;55.876;9.830;2024-03-07T03:22:59;27.26;36.50
31443;SHT31;18065;55.876;9.830;2024-03-07T03:25:31;26.76;37.40
31443;SHT31;18065;55.876;9.830;2024-03-07T03:28:00;26.31;38.21
31443;SHT31;18065;55.876;9.830;2024-03-07T03:30:29;25.87;39.04
31443;SHT31;18065;55.876;9.830;2024-03-07T03:32:58;25.43;39.81
31443;SHT31;18065;55.876;9.830;2024-03-07T03:35:27;25.04;40.59
31443;SHT31;18065;55.876;9.830;2024-03-07T03:37:56;24.64;41.29
31443;SHT31;18065;55.876;9.830;2024-03-07T03:40:25;24.29;41.99
31443;SHT31;18065;55.876;9.830;2024-03-07T03:42:57;23.99;42.72
31443;SHT31;18065;55.876;9.830;2024-03-07T03:45:26;23.69;43.38
31443;SHT31;18065;55.876;9.830;2024-03-07T03:47:56;23.44;43.98
31443;SHT31;18065;55.876;9.830;2024-03-07T03:50:25;23.22;44.46
31443;SHT31;18065;55.876;9.830;2024-03-07T03:52:54;22.97;44.99
31443;SHT31;18065;55.876;9.830;2024-03-07T03:55:23;22.79;45.42
31443;SHT31;18065;55.876;9.830;2024-03-07T03:57:52;22.61;45.75
31443;SHT31;18065;55.876;9.830;2024-03-07T04:00:24;22.54;45.93
31443;SHT31;18065;55.876;9.830;2024-03-07T04:02:52;22.44;46.23
31443;SHT31;18065;55.876;9.830;2024-03-07T04:05:22;22.29;46.53
31443;SHT31;18065;55.876;9.830;2024-03-07T04:07:51;22.16;46.84
31443;SHT31;18065;55.876;9.830;2024-03-07T04:10:22;22.04;47.07
31443;SHT31;18065;55.876;9.830;2024-03-07T04:12:50;21.92;47.39
31443;SHT31;18065;55.876;9.830;2024-03-07T04:15:19;21.81;47.70
31443;SHT31;18065;55.876;9.830;2024-03-07T04:17:55;21.67;47.91
31443;SHT31;18065;55.876;9.830;2024-03-07T04:20:24;21.60;48.19
31443;SHT31;18065;55.876;9.830;2024-03-07T04:22:52;21.50;48.42
31443;SHT31;18065;55.876;9.830;2024-03-07T04:25:21;21.41;48.61
31443;SHT31;18065;55.876;9.830;2024-03-07T04:27:51;21.35;48.83
31443;SHT31;18065;55.876;9.830;2024-03-07T04:30:20;21.23;48.97
31443;SHT31;18065;55.876;9.830;2024-03-07T04:32:48;21.19;49.14
31443;SHT31;18065;55.876;9.830;2024-03-07T04:35:20;21.12;49.25
31443;SHT31;18065;55.876;9.830;2024-03-07T04:37:49;21.04;49.46
31443;SHT31;18065;55.876;9.830;2024-03-07T04:40:18;21.01;49.55
31443;SHT31;18065;55.876;9.830;2024-03-07T04:42:48;20.94;49.69
31443;SHT31;18065;55.876;9.830;2024-03-07T04:45:18;20.92;49.79
31443;SHT31;18065;55.876;9.830;2024-03-07T04:47:47;20.88;49.88
31443;SHT31;18065;55.876;9.830;2024-03-07T04:50:16;20.83;49.92
31443;SHT31;18065;55.876;9.830;2024-03-07T04:52:48;20.78;50.00
31443;SHT31;18065;55.876;9.830;2024-03-07T04:55:17;20.77;50.04
31443;SHT31;18065;55.876;9.830;2024-03-07T04:57:46;20.74;50.12
31443;SHT31;18065;55.876;9.830;2024-03-07T05:00:15;20.70;50.17
31443;SHT31;18065;55.876;9.830;2024-03-07T05:02:47;20.67;50.25
31443;SHT31;18065;55.876;9.830;2024-03-07T05:05:16;20.63;50.30
31443;SHT31;18065;55.876;9.830;2024-03-07T05:07:50;20.61;50.34
31443;SHT31;18065;55.876;9.830;2024-03-07T05:10:21;20.50;50.62
31443;SHT31;18065;55.876;9.830;2024-03-07T05:12:50;20.53;50.54
31443;SHT31;18065;55.876;9.830;2024-03-07T05:15:19;20.49;50.57
31443;SHT31;18065;55.876;9.830;2024-03-07T05:17:51;20.49;50.59
31443;SHT31;18065;55.876;9.830;2024-03-07T05:20:22;20.47;50.62
31443;SHT31;18065;55.876;9.830;2024-03-07T05:22:53;21.94;47.68
31443;SHT31;18065;55.876;9.830;2024-03-07T05:25:22;26.27;38.52
31443;SHT31;18065;55.876;9.830;2024-03-07T05:27:51;28.67;34.38
31443;SHT31;18065;55.876;9.830;2024-03-07T05:30:20;30.13;31.96
31443;SHT31;18065;55.876;9.830;2024-03-07T05:32:51;30.38;31.41
31443;SHT31;18065;55.876;9.830;2024-03-07T05:35:20;29.84;32.08
31443;SHT31;18065;55.876;9.830;2024-03-07T05:37:49;29.22;33.11
31443;SHT31;18065;55.876;9.830;2024-03-07T05:40:21;28.57;34.15
31443;SHT31;18065;55.876;9.830;2024-03-07T05:42:50;27.93;35.17
31443;SHT31;18065;55.876;9.830;2024-03-07T05:45:21;27.38;36.00
31443;SHT31;18065;55.876;9.830;2024-03-07T05:47:49;26.85;36.90
31443;SHT31;18065;55.876;9.830;2024-03-07T05:50:18;26.37;37.70
31443;SHT31;18065;55.876;9.830;2024-03-07T05:52:47;25.90;38.64
31443;SHT31;18065;55.876;9.830;2024-03-07T05:55:16;25.46;39.39
31443;SHT31;18065;55.876;9.830;2024-03-07T05:57:49;25.08;40.13
31443;SHT31;18065;55.876;9.830;2024-03-07T06:00:19;24.70;40.77
31443;SHT31;18065;55.876;9.830;2024-03-07T06:02:52;24.37;41.54
31443;SHT31;18065;55.876;9.830;2024-03-07T06:05:21;24.08;42.22
31443;SHT31;18065;55.876;9.830;2024-03-07T06:07:50;23.77;42.82
31443;SHT31;18065;55.876;9.830;2024-03-07T06:10:19;23.51;43.40
31443;SHT31;18065;55.876;9.830;2024-03-07T06:12:52;23.24;43.94
31443;SHT31;18065;55.876;9.830;2024-03-07T06:15:21;23.03;44.42
31443;SHT31;18065;55.876;9.830;2024-03-07T06:17:50;22.80;44.89
31443;SHT31;18065;55.876;9.830;2024-03-07T06:20:19;22.58;45.33
31443;SHT31;18065;55.876;9.830;2024-03-07T06:22:51;22.41;45.72
31443;SHT31;18065;55.876;9.830;2024-03-07T06:25:20;22.24;46.09
31443;SHT31;18065;55.876;9.830;2024-03-07T06:28:03;22.07;46.50
31443;SHT31;18065;55.876;9.830;2024-03-07T06:30:38;21.92;46.83
31443;SHT31;18065;55.876;9.830;2024-03-07T06:33:07;21.79;47.11
31443;SHT31;18065;55.876;9.830;2024-03-07T06:35:36;21.67;47.41
31443;SHT31;18065;55.876;9.830;2024-03-07T06:38:06;21.56;47.62
31443;SHT31;18065;55.876;9.830;2024-03-07T06:40:35;21.46;47.86
31443;SHT31;18065;55.876;9.830;2024-03-07T06:43:06;21.39;48.04
31443;SHT31;18065;55.876;9.830;2024-03-07T06:45:36;21.29;48.24
31443;SHT31;18065;55.876;9.830;2024-03-07T06:48:06;21.22;48.46
31443;SHT31;18065;55.876;9.830;2024-03-07T06:50:36;21.15;48.62
31443;SHT31;18065;55.876;9.830;2024-03-07T06:53:05;21.11;48.74
31443;SHT31;18065;55.876;9.830;2024-03-07T06:55:35;21.02;48.90
31443;SHT31;18065;55.876;9.830;2024-03-07T06:58:06;20.98;48.97
31443;SHT31;18065;55.876;9.830;2024-03-07T07:00:36;20.91;49.15
31443;SHT31;18065;55.876;9.830;2024-03-07T07:03:05;20.87;49.28
31443;SHT31;18065;55.876;9.830;2024-03-07T07:05:36;20.83;49.39
31443;SHT31;18065;55.876;9.830;2024-03-07T07:08:05;20.80;49.49
31443;SHT31;18065;55.876;9.830;2024-03-07T07:10:35;20.77;49.56
31443;SHT31;18065;55.876;9.830;2024-03-07T07:13:08;20.73;49.60
31443;SHT31;18065;55.876;9.830;2024-03-07T07:15:39;20.63;49.97
31443;SHT31;18065;55.876;9.830;2024-03-07T07:18:05;20.64;49.89
31443;SHT31;18065;55.876;9.830;2024-03-07T07:20:36;20.60;49.96
31443;SHT31;18065;55.876;9.830;2024-03-07T07:23:05;20.59;50.01
31443;SHT31;18065;55.876;9.830;2024-03-07T07:25:36;20.56;50.07
31443;SHT31;18065;55.876;9.830;2024-03-07T07:28:09;20.56;50.13
31443;SHT31;18065;55.876;9.830;2024-03-07T07:30:38;20.51;50.19
31443;SHT31;18065;55.876;9.830;2024-03-07T07:33:07;20.50;50.22
31443;SHT31;18065;55.876;9.830;2024-03-07T07:35:36;20.50;50.24
31443;SHT31;18065;55.876;9.830;2024-03-07T07:38:05;20.50;50.42
31443;SHT31;18065;55.876;9.830;2024-03-07T07:40:36;22.21;46.60
31443;SHT31;18065;55.876;9.830;2024-03-07T07:43:09;25.70;39.24
31443;SHT31;18065;55.876;9.830;2024-03-07T07:45:39;27.54;35.82
31443;SHT31;18065;55.876;9.830;2024-03-07T07:48:08;28.63;34.00
31443;SHT31;18065;55.876;9.830;2024-03-07T07:50:37;28.53;34.10
31443;SHT31;18065;55.876;9.830;2024-03-07T07:53:06;28.01;34.82
31443;SHT31;18065;55.876;9.830;2024-03-07T07:55:36;27.46;35.69
31443;SHT31;18065;55.876;9.830;2024-03-07T07:58:08;26.96;36.45
31443;SHT31;18065;55.876;9.830;2024-03-07T08:00:37;26.47;37.29
31443;SHT31;18065;55.876;9.830;2024-03-07T08:03:09;25.98;38.18
31443;SHT31;18065;55.876;9.830;2024-03-07T08:05:41;25.56;38.97
31443;SHT31;18065;55.876;9.830;2024-03-07T08:08:10;25.14;39.75
31443;SHT31;18065;55.876;9.830;2024-03-07T08:10:42;24.78;40.52
31443;SHT31;18065;55.876;9.830;2024-03-07T08:13:14;24.39;41.18
31443;SHT31;18065;55.876;9.830;2024-03-07T08:15:43;24.06;41.88
31443;SHT31;18065;55.876;9.830;2024-03-07T08:18:12;23.75;42.50
31443;SHT31;18065;55.876;9.830;2024-03-07T08:20:41;23.44;43.13
31443;SHT31;18065;55.876;9.830;2024-03-07T08:23:10;23.20;43.70
31443;SHT31;18065;55.876;9.830;2024-03-07T08:25:39;22.96;44.21
31443;SHT31;18065;55.876;9.830;2024-03-07T08:28:08;22.75;44.70
31443;SHT31;18065;55.876;9.830;2024-03-07T08:30:40;22.55;45.07
31443;SHT31;18065;55.876;9.830;2024-03-07T08:33:10;22.31;45.55
31443;SHT31;18065;55.876;9.830;2024-03-07T08:35:39;22.17;45.96
31443;SHT31;18065;55.876;9.830;2024-03-07T08:38:08;22.00;46.31
31443;SHT31;18065;55.876;9.830;2024-03-07T08:40:37;21.89;46.61
31443;SHT31;18065;55.876;9.830;2024-03-07T08:43:06;21.73;46.91
31443;SHT31;18065;55.876;9.830;2024-03-07T08:45:36;21.60;47.20
31443;SHT31;18065;55.876;9.830;2024-03-07T08:48:07;21.50;47.35
31443;SHT31;18065;55.876;9.830;2024-03-07T08:50:38;21.39;47.67
31443;SHT31;18065;55.876;9.830;2024-03-07T08:53:07;21.32;47.88
31443;SHT31;18065;55.876;9.830;2024-03-07T08:55:36;21.25;47.99
31443;SHT31;18065;55.876;9.830;2024-03-07T08:58:05;21.18;48.10
31443;SHT31;18065;55.876;9.830;2024-03-07T09:00:35;21.15;48.21
31443;SHT31;18065;55.876;9.830;2024-03-07T09:03:07;21.15;48.26
31443;SHT31;18065;55.876;9.830;2024-03-07T09:05:38;21.09;48.40
31443;SHT31;18065;55.876;9.830;2024-03-07T09:08:07;21.05;48.53
31443;SHT31;18065;55.876;9.830;2024-03-07T09:10:37;21.02;48.63
31443;SHT31;18065;55.876;9.830;2024-03-07T09:13:06;21.01;48.65
31443;SHT31;18065;55.876;9.830;2024-03-07T09:15:35;20.97;48.48
31443;SHT31;18065;55.876;9.830;2024-03-07T09:18:07;20.92;48.72
31443;SHT31;18065;55.876;9.830;2024-03-07T09:20:36;20.92;48.84
31443;SHT31;18065;55.876;9.830;2024-03-07T09:23:05;20.88;48.91
31443;SHT31;18065;55.876;9.830;2024-03-07T09:25:34;20.88;49.02
31443;SHT31;18065;55.876;9.830;2024-03-07T09:28:03;20.84;48.98
31443;SHT31;18065;55.876;9.830;2024-03-07T09:30:32;20.83;49.05
31443;SHT31;18065;55.876;9.830;2024-03-07T09:33:07;20.80;49.07
31443;SHT31;18065;55.876;9.830;2024-03-07T09:35:42;20.76;49.12
31443;SHT31;18065;55.876;9.830;2024-03-07T09:38:11;20.74;49.24
31443;SHT31;18065;55.876;9.830;2024-03-07T09:40:40;20.74;49.26
31443;SHT31;18065;55.876;9.830;2024-03-07T09:43:12;20.76;49.25
31443;SHT31;18065;55.876;9.830;2024-03-07T09:45:42;20.74;49.22
31443;SHT31;18065;55.876;9.830;2024-03-07T09:48:14;20.74;49.27
31443;SHT31;18065;55.876;9.830;2024-03-07T09:50:43;20.76;49.32
31443;SHT31;18065;55.876;9.830;2024-03-07T09:53:13;20.74;49.25
31443;SHT31;18065;55.876;9.830;2024-03-07T09:55:44;20.73;49.26
31443;SHT31;18065;55.876;9.830;2024-03-07T09:58:18;20.76;49.18
31443;SHT31;18065;55.876;9.830;2024-03-07T10:00:47;20.76;49.06
31443;SHT31;18065;55.876;9.830;2024-03-07T10:03:23;20.77;49.14
31443;SHT31;18065;55.876;9.830;2024-03-07T10:05:55;20.80;49.27
31443;SHT31;18065;55.876;9.830;2024-03-07T10:08:27;20.74;49.34
31443;SHT31;18065;55.876;9.830;2024-03-07T10:10:57;20.71;49.43
31443;SHT31;18065;55.876;9.830;2024-03-07T10:13:26;20.69;49.48
31443;SHT31;18065;55.876;9.830;2024-03-07T10:15:57;20.70;49.45
31443;SHT31;18065;55.876;9.830;2024-03-07T10:18:29;20.70;49.42
31443;SHT31;18065;55.876;9.830;2024-03-07T10:20:58;20.69;49.51
31443;SHT31;18065;55.876;9.830;2024-03-07T10:23:29;20.67;49.47
31443;SHT31;18065;55.876;9.830;2024-03-07T10:25:59;20.67;49.56
31443;SHT31;18065;55.876;9.830;2024-03-07T10:28:29;20.66;49.53
31443;SHT31;18065;55.876;9.830;2024-03-07T10:30:59;20.64;49.51
31443;SHT31;18065;55.876;9.830;2024-03-07T10:33:32;20.64;49.53
31443;SHT31;18065;55.876;9.830;2024-03-07T10:36:02;20.61;49.60
31443;SHT31;18065;55.876;9.830;2024-03-07T10:38:31;20.60;49.63
31443;SHT31;18065;55.876;9.830;2024-03-07T10:41:01;20.63;49.59
31443;SHT31;18065;55.876;9.830;2024-03-07T10:43:35;20.64;49.56
31443;SHT31;18065;55.876;9.830;2024-03-07T10:46:07;20.66;49.55
31443;SHT31;18065;55.876;9.830;2024-03-07T10:48:45;20.67;49.52
31443;SHT31;18065;55.876;9.830;2024-03-07T10:51:22;20.74;49.38
31443;SHT31;18065;55.876;9.830;2024-03-07T10:54:01;20.77;49.37
31443;SHT31;18065;55.876;9.830;2024-03-07T10:56:45;20.78;49.32
31443;SHT31;18065;55.876;9.830;2024-03-07T10:59:17;20.77;49.36
31443;SHT31;18065;55.876;9.830;2024-03-07T11:02:04;20.78;49.29
31443;SHT31;18065;55.876;9.830;2024-03-07T11:04:41;20.77;49.31
31443;SHT31;18065;55.876;9.830;2024-03-07T11:07:11;20.77;49.39
31443;SHT31;18065;55.876;9.830;2024-03-07T11:09:40;20.76;49.41
31443;SHT31;18065;55.876;9.830;2024-03-07T11:12:13;20.73;49.35
31443;SHT31;18065;55.876;9.830;2024-03-07T11:14:43;20.70;49.30
31443;SHT31;18065;55.876;9.830;2024-03-07T11:17:13;20.71;49.31
31443;SHT31;18065;55.876;9.830;2024-03-07T11:19:47;20.71;49.36
31443;SHT31;18065;55.876;9.830;2024-03-07T11:22:29;20.69;49.44
31443;SHT31;18065;55.876;9.830;2024-03-07T11:25:01;20.69;49.52
31443;SHT31;18065;55.876;9.830;2024-03-07T11:27:33;20.69;49.65
31443;SHT31;18065;55.876;9.830;2024-03-07T11:30:06;20.67;49.70
31443;SHT31;18065;55.876;9.830;2024-03-07T11:32:36;20.66;49.72
31443;SHT31;18065;55.876;9.830;2024-03-07T11:35:14;20.66;49.69
31443;SHT31;18065;55.876;9.830;2024-03-07T11:37:48;20.67;49.79
31443;SHT31;18065;55.876;9.830;2024-03-07T11:43:22;20.66;49.80
31443;SHT31;18065;55.876;9.830;2024-03-07T11:45:55;20.63;49.86
31443;SHT31;18065;55.876;9.830;2024-03-07T11:48:24;20.64;49.78
31443;SHT31;18065;55.876;9.830;2024-03-07T11:50:55;20.60;49.83
31443;SHT31;18065;55.876;9.830;2024-03-07T11:53:25;20.64;49.85
31443;SHT31;18065;55.876;9.830;2024-03-07T11:55:54;20.63;49.86
31443;SHT31;18065;55.876;9.830;2024-03-07T11:58:23;20.60;49.81
31443;SHT31;18065;55.876;9.830;2024-03-07T12:00:52;20.61;49.89
31443;SHT31;18065;55.876;9.830;2024-03-07T12:03:24;20.61;49.86
31443;SHT31;18065;55.876;9.830;2024-03-07T12:05:57;20.61;49.82
31443;SHT31;18065;55.876;9.830;2024-03-07T12:08:26;20.60;49.79
31443;SHT31;18065;55.876;9.830;2024-03-07T12:10:55;20.57;49.78
31443;SHT31;18065;55.876;9.830;2024-03-07T12:13:25;20.57;49.80
31443;SHT31;18065;55.876;9.830;2024-03-07T12:15:54;20.57;49.80
31443;SHT31;18065;55.876;9.830;2024-03-07T12:18:24;20.59;49.83
31443;SHT31;18065;55.876;9.830;2024-03-07T12:20:53;20.60;49.79
31443;SHT31;18065;55.876;9.830;2024-03-07T12:23:26;20.57;49.76
31443;SHT31;18065;55.876;9.830;2024-03-07T12:25:59;20.56;49.82
31443;SHT31;18065;55.876;9.830;2024-03-07T12:28:29;20.49;50.03
31443;SHT31;18065;55.876;9.830;2024-03-07T12:30:59;20.54;49.94
31443;SHT31;18065;55.876;9.830;2024-03-07T12:33:31;20.53;49.85
31443;SHT31;18065;55.876;9.830;2024-03-07T12:36:05;20.54;49.93
31443;SHT31;18065;55.876;9.830;2024-03-07T12:38:39;20.54;49.90
31443;SHT31;18065;55.876;9.830;2024-03-07T12:41:09;20.54;49.93
31443;SHT31;18065;55.876;9.830;2024-03-07T12:43:42;20.54;49.99
31443;SHT31;18065;55.876;9.830;2024-03-07T12:46:11;20.54;50.06
31443;SHT31;18065;55.876;9.830;2024-03-07T12:48:41;20.54;50.10
31443;SHT31;18065;55.876;9.830;2024-03-07T12:51:10;20.60;50.11
31443;SHT31;18065;55.876;9.830;2024-03-07T12:53:45;20.54;50.14
31443;SHT31;18065;55.876;9.830;2024-03-07T12:56:14;20.56;50.24
31443;SHT31;18065;55.876;9.830;2024-03-07T12:58:44;20.54;50.18
31443;SHT31;18065;55.876;9.830;2024-03-07T13:01:15;20.54;50.17
31443;SHT31;18065;55.876;9.830;2024-03-07T13:03:44;20.53;50.19
31443;SHT31;18065;55.876;9.830;2024-03-07T13:06:15;20.51;50.30
31443;SHT31;18065;55.876;9.830;2024-03-07T13:08:50;20.54;50.28
31443;SHT31;18065;55.876;9.830;2024-03-07T13:11:19;20.54;50.34
31443;SHT31;18065;55.876;9.830;2024-03-07T13:13:48;20.51;50.43
31443;SHT31;18065;55.876;9.830;2024-03-07T13:16:18;20.51;50.36
31443;SHT31;18065;55.876;9.830;2024-03-07T13:18:47;20.53;50.31
31443;SHT31;18065;55.876;9.830;2024-03-07T13:21:16;20.53;50.38
31443;SHT31;18065;55.876;9.830;2024-03-07T13:23:46;20.50;50.53
31443;SHT31;18065;55.876;9.830;2024-03-07T13:26:20;20.50;50.46
31443;SHT31;18065;55.876;9.830;2024-03-07T13:28:53;20.50;50.55
31443;SHT31;18065;55.876;9.830;2024-03-07T13:31:24;20.49;50.65
31443;SHT31;18065;55.876;9.830;2024-03-07T13:33:53;20.46;50.58
31443;SHT31;18065;55.876;9.830;2024-03-07T13:36:22;20.46;50.67
31443;SHT31;18065;55.876;9.830;2024-03-07T13:38:52;20.44;50.70
31443;SHT31;18065;55.876;9.830;2024-03-07T13:41:26;20.46;50.65
31443;SHT31;18065;55.876;9.830;2024-03-07T13:43:56;20.46;50.63
31443;SHT31;18065;55.876;9.830;2024-03-07T13:46:25;20.44;50.60
31443;SHT31;18065;55.876;9.830;2024-03-07T13:48:54;20.44;50.55
31443;SHT31;18065;55.876;9.830;2024-03-07T13:51:33;20.43;50.67
31443;SHT31;18065;55.876;9.830;2024-03-07T13:54:02;20.43;50.74
31443;SHT31;18065;55.876;9.830;2024-03-07T13:57:03;20.40;50.61
31443;SHT31;18065;55.876;9.830;2024-03-07T14:00:05;20.39;50.73
31443;SHT31;18065;55.876;9.830;2024-03-07T14:06:03;20.39;50.86
31443;SHT31;18065;55.876;9.830;2024-03-07T14:08:54;20.37;50.87
31443;SHT31;18065;55.876;9.830;2024-03-07T14:12:11;20.36;50.96
31443;SHT31;18065;55.876;9.830;2024-03-07T14:18:12;20.32;51.04
31443;SHT31;18065;55.876;9.830;2024-03-07T14:21:08;20.36;51.02
31443;SHT31;18065;55.876;9.830;2024-03-07T14:24:06;20.34;51.07
31443;SHT31;18065;55.876;9.830;2024-03-07T14:26:56;20.34;50.86
31443;SHT31;18065;55.876;9.830;2024-03-07T14:29:39;20.36;50.99
31443;SHT31;18065;55.876;9.830;2024-03-07T14:32:10;20.36;50.96
31443;SHT31;18065;55.876;9.830;2024-03-07T14:34:58;20.34;51.02
31443;SHT31;18065;55.876;9.830;2024-03-07T14:37:37;20.34;51.05
31443;SHT31;18065;55.876;9.830;2024-03-07T14:40:10;20.37;51.01
31443;SHT31;18065;55.876;9.830;2024-03-07T14:42:43;20.37;50.91
31443;SHT31;18065;55.876;9.830;2024-03-07T14:45:18;20.36;50.86
31443;SHT31;18065;55.876;9.830;2024-03-07T14:47:49;20.37;50.92
31443;SHT31;18065;55.876;9.830;2024-03-07T14:50:21;20.34;50.86
31443;SHT31;18065;55.876;9.830;2024-03-07T14:52:51;20.36;50.85
31443;SHT31;18065;55.876;9.830;2024-03-07T14:55:21;20.36;50.92
31443;SHT31;18065;55.876;9.830;2024-03-07T14:57:50;20.32;50.96
31443;SHT31;18065;55.876;9.830;2024-03-07T15:00:21;20.37;50.94
31443;SHT31;18065;55.876;9.830;2024-03-07T15:02:52;20.28;51.10
31443;SHT31;18065;55.876;9.830;2024-03-07T15:05:23;20.34;50.96
31443;SHT31;18065;55.876;9.830;2024-03-07T15:07:53;20.32;50.94
31443;SHT31;18065;55.876;9.830;2024-03-07T15:10:25;20.32;50.91
31443;SHT31;18065;55.876;9.830;2024-03-07T15:12:57;20.33;50.79
31443;SHT31;18065;55.876;9.830;2024-03-07T15:15:29;20.32;50.81
31443;SHT31;18065;55.876;9.830;2024-03-07T15:17:58;20.29;50.97
31443;SHT31;18065;55.876;9.830;2024-03-07T15:20:27;20.32;50.97
31443;SHT31;18065;55.876;9.830;2024-03-07T15:22:58;20.29;50.95
31443;SHT31;18065;55.876;9.830;2024-03-07T15:25:29;20.30;50.95
31443;SHT31;18065;55.876;9.830;2024-03-07T15:27:59;20.32;50.93
31443;SHT31;18065;55.876;9.830;2024-03-07T15:30:31;20.28;50.91
31443;SHT31;18065;55.876;9.830;2024-03-07T15:33:00;20.29;50.85
31443;SHT31;18065;55.876;9.830;2024-03-07T15:35:29;20.30;50.84
31443;SHT31;18065;55.876;9.830;2024-03-07T15:38:00;20.26;50.89
31443;SHT31;18065;55.876;9.830;2024-03-07T15:40:31;20.29;50.92
31443;SHT31;18065;55.876;9.830;2024-03-07T15:43:01;20.28;50.80
31443;SHT31;18065;55.876;9.830;2024-03-07T15:45:32;20.30;50.84
31443;SHT31;18065;55.876;9.830;2024-03-07T15:48:01;20.28;50.96
31443;SHT31;18065;55.876;9.830;2024-03-07T15:50:31;20.26;50.95
31443;SHT31;18065;55.876;9.830;2024-03-07T15:53:02;20.25;50.95
31443;SHT31;18065;55.876;9.830;2024-03-07T15:55:32;20.28;50.97
31443;SHT31;18065;55.876;9.830;2024-03-07T15:58:02;20.26;51.01
31443;SHT31;18065;55.876;9.830;2024-03-07T16:00:37;20.26;50.99
31443;SHT31;18065;55.876;9.830;2024-03-07T16:03:07;20.23;51.00